sensor_id;sensor_type;location;lat;lon;timestamp;temperature;humidity
15916;DHT22;8057;47.830;-3.870;2023-07-13T00:04:00;17.80;99.90
15916;DHT22;8057;47.830;-3.870;2023-07-13T00:08:20;17.80;99.90
15916;DHT22;8057;47.830;-3.870;2023-07-13T00:12:37;17.70;99.90
15916;DHT22;8057;47.830;-3.870;2023-07-13T00:17:05;17.70;99.90
15916;DHT22;8057;47.830;-3.870;2023-07-13T00:21:22;17.70;99.90
15916;DHT22;8057;47.830;-3.870;2023-07-13T00:25:36;17.70;99.90
15916;DHT22;8057;47.830;-3.870;2023-07-13T00:29:56;17.70;99.90
15916;DHT22;8057;47.830;-3.870;2023-07-13T00:34:13;17.70;99.90
15916;DHT22;8057;47.830;-3.870;2023-07-13T00:38:29;17.70;99.90
15916;DHT22;8057;47.830;-3.870;2023-07-13T00:42:53;17.70;99.90
15916;DHT22;8057;47.830;-3.870;2023-07-13T00:47:14;17.70;99.90
15916;DHT22;8057;47.830;-3.870;2023-07-13T00:51:37;17.70;99.90
15916;DHT22;8057;47.830;-3.870;2023-07-13T00:56:01;17.80;99.90
15916;DHT22;8057;47.830;-3.870;2023-07-13T01:00:21;17.80;99.90
15916;DHT22;8057;47.830;-3.870;2023-07-13T01:04:38;17.70;99.90
15916;DHT22;8057;47.830;-3.870;2023-07-13T01:08:56;17.80;99.90
15916;DHT22;8057;47.830;-3.870;2023-07-13T01:13:13;17.70;99.90
15916;DHT22;8057;47.830;-3.870;2023-07-13T01:17:31;17.80;99.90
15916;DHT22;8057;47.830;-3.870;2023-07-13T01:21:54;17.80;99.90
15916;DHT22;8057;47.830;-3.870;2023-07-13T01:26:18;17.80;99.90
15916;DHT22;8057;47.830;-3.870;2023-07-13T01:30:38;17.80;99.90
15916;DHT22;8057;47.830;-3.870;2023-07-13T01:34:58;17.80;99.90
15916;DHT22;8057;47.830;-3.870;2023-07-13T01:39:25;17.80;99.90
15916;DHT22;8057;47.830;-3.870;2023-07-13T01:43:43;17.70;99.90
15916;DHT22;8057;47.830;-3.870;2023-07-13T01:48:10;17.60;99.90
15916;DHT22;8057;47.830;-3.870;2023-07-13T01:52:31;17.70;99.90
15916;DHT22;8057;47.830;-3.870;2023-07-13T01:56:52;17.60;99.90
15916;DHT22;8057;47.830;-3.870;2023-07-13T02:01:13;17.60;99.90
15916;DHT22;8057;47.830;-3.870;2023-07-13T02:05:35;17.60;99.90
15916;DHT22;8057;47.830;-3.870;2023-07-13T02:09:49;17.60;99.90
15916;DHT22;8057;47.830;-3.870;2023-07-13T02:14:06;17.60;99.90
15916;DHT22;8057;47.830;-3.870;2023-07-13T02:18:29;17.60;99.90
15916;DHT22;8057;47.830;-3.870;2023-07-13T02:22:50;17.50;99.90
15916;DHT22;8057;47.830;-3.870;2023-07-13T02:27:12;17.50;99.90
15916;DHT22;8057;47.830;-3.870;2023-07-13T02:31:35;17.40;99.90
15916;DHT22;8057;47.830;-3.870;2023-07-13T02:36:00;17.50;99.90
15916;DHT22;8057;47.830;-3.870;2023-07-13T02:40:23;17.50;99.90
15916;DHT22;8057;47.830;-3.870;2023-07-13T02:44:39;17.50;99.90
15916;DHT22;8057;47.830;-3.870;2023-07-13T02:48:59;17.40;99.90
15916;DHT22;8057;47.830;-3.870;2023-07-13T02:53:14;17.50;99.90
15916;DHT22;8057;47.830;-3.870;2023-07-13T02:57:31;17.50;99.90
15916;DHT22;8057;47.830;-3.870;2023-07-13T03:01:50;17.50;99.90
15916;DHT22;8057;47.830;-3.870;2023-07-13T03:06:14;17.50;99.90
15916;DHT22;8057;47.830;-3.870;2023-07-13T03:10:30;17.40;99.90
15916;DHT22;8057;47.830;-3.870;2023-07-13T03:14:50;17.40;99.90
15916;DHT22;8057;47.830;-3.870;2023-07-13T03:19:14;17.40;99.90
15916;DHT22;8057;47.830;-3.870;2023-07-13T03:23:33;17.40;99.90
15916;DHT22;8057;47.830;-3.870;2023-07-13T03:27:50;17.40;99.90
15916;DHT22;8057;47.830;-3.870;2023-07-13T03:32:16;17.30;99.90
15916;DHT22;8057;47.830;-3.870;2023-07-13T03:36:40;17.30;99.90
15916;DHT22;8057;47.830;-3.870;2023-07-13T03:41:03;17.30;99.90
15916;DHT22;8057;47.830;-3.870;2023-07-13T03:45:19;17.20;99.90
15916;DHT22;8057;47.830;-3.870;2023-07-13T03:49:39;17.20;99.90
15916;DHT22;8057;47.830;-3.870;2023-07-13T03:54:00;17.30;99.90
15916;DHT22;8057;47.830;-3.870;2023-07-13T03:58:33;17.30;99.90
15916;DHT22;8057;47.830;-3.870;2023-07-13T04:02:49;17.20;99.90
15916;DHT22;8057;47.830;-3.870;2023-07-13T04:07:05;17.20;99.90
15916;DHT22;8057;47.830;-3.870;2023-07-13T04:11:24;17.20;99.90
15916;DHT22;8057;47.830;-3.870;2023-07-13T04:15:40;17.30;99.90
15916;DHT22;8057;47.830;-3.870;2023-07-13T04:19:56;17.20;99.90
15916;DHT22;8057;47.830;-3.870;2023-07-13T04:24:18;17.30;99.90
15916;DHT22;8057;47.830;-3.870;2023-07-13T04:28:33;17.20;99.90
15916;DHT22;8057;47.830;-3.870;2023-07-13T04:32:56;17.30;99.90
15916;DHT22;8057;47.830;-3.870;2023-07-13T04:37:14;17.20;99.90
15916;DHT22;8057;47.830;-3.870;2023-07-13T04:41:35;17.20;99.90
15916;DHT22;8057;47.830;-3.870;2023-07-13T04:46:03;17.20;99.90
15916;DHT22;8057;47.830;-3.870;2023-07-13T04:50:21;17.20;99.90
15916;DHT22;8057;47.830;-3.870;2023-07-13T04:54:40;17.30;99.90
15916;DHT22;8057;47.830;-3.870;2023-07-13T04:58:58;17.20;99.90
15916;DHT22;8057;47.830;-3.870;2023-07-13T05:03:17;17.30;99.90
15916;DHT22;8057;47.830;-3.870;2023-07-13T05:07:37;17.30;99.90
15916;DHT22;8057;47.830;-3.870;2023-07-13T05:12:00;17.30;99.90
15916;DHT22;8057;47.830;-3.870;2023-07-13T05:16:19;17.30;99.90
15916;DHT22;8057;47.830;-3.870;2023-07-13T05:20:38;17.40;99.90
15916;DHT22;8057;47.830;-3.870;2023-07-13T05:25:04;17.40;99.90
15916;DHT22;8057;47.830;-3.870;2023-07-13T05:29:31;17.40;99.90
15916;DHT22;8057;47.830;-3.870;2023-07-13T05:33:47;17.40;99.90
15916;DHT22;8057;47.830;-3.870;2023-07-13T05:38:04;17.40;99.90
15916;DHT22;8057;47.830;-3.870;2023-07-13T05:42:27;17.40;99.90
15916;DHT22;8057;47.830;-3.870;2023-07-13T05:46:47;17.50;99.90
15916;DHT22;8057;47.830;-3.870;2023-07-13T05:51:03;17.50;99.90
15916;DHT22;8057;47.830;-3.870;2023-07-13T05:55:26;17.60;99.90
15916;DHT22;8057;47.830;-3.870;2023-07-13T05:59:45;17.60;99.90
15916;DHT22;8057;47.830;-3.870;2023-07-13T06:04:01;17.70;99.90
15916;DHT22;8057;47.830;-3.870;2023-07-13T06:08:25;17.70;99.90
15916;DHT22;8057;47.830;-3.870;2023-07-13T06:12:43;17.70;99.90
15916;DHT22;8057;47.830;-3.870;2023-07-13T06:16:59;17.80;99.90
15916;DHT22;8057;47.830;-3.870;2023-07-13T06:21:21;17.80;99.90
15916;DHT22;8057;47.830;-3.870;2023-07-13T06:25:46;17.80;99.90
15916;DHT22;8057;47.830;-3.870;2023-07-13T06:30:01;17.90;99.90
15916;DHT22;8057;47.830;-3.870;2023-07-13T06:34:19;17.90;99.90
15916;DHT22;8057;47.830;-3.870;2023-07-13T06:38:41;17.90;99.90
15916;DHT22;8057;47.830;-3.870;2023-07-13T06:42:56;18.00;99.90
15916;DHT22;8057;47.830;-3.870;2023-07-13T06:47:14;18.00;99.90
15916;DHT22;8057;47.830;-3.870;2023-07-13T06:51:37;18.00;99.90
15916;DHT22;8057;47.830;-3.870;2023-07-13T06:55:55;18.10;99.90
15916;DHT22;8057;47.830;-3.870;2023-07-13T07:00:10;18.10;99.90
15916;DHT22;8057;47.830;-3.870;2023-07-13T07:04:33;18.20;99.90
15916;DHT22;8057;47.830;-3.870;2023-07-13T07:09:01;18.20;99.90
15916;DHT22;8057;47.830;-3.870;2023-07-13T07:13:23;18.30;99.90
15916;DHT22;8057;47.830;-3.870;2023-07-13T07:17:42;18.40;99.90
15916;DHT22;8057;47.830;-3.870;2023-07-13T07:22:03;18.40;99.90
15916;DHT22;8057;47.830;-3.870;2023-07-13T07:26:31;18.40;99.90
15916;DHT22;8057;47.830;-3.870;2023-07-13T07:31:00;18.50;99.90
15916;DHT22;8057;47.830;-3.870;2023-07-13T07:35:23;18.50;99.90
15916;DHT22;8057;47.830;-3.870;2023-07-13T07:40:09;18.60;99.90
15916;DHT22;8057;47.830;-3.870;2023-07-13T07:44:58;18.60;99.90
15916;DHT22;8057;47.830;-3.870;2023-07-13T07:49:40;18.70;99.90
15916;DHT22;8057;47.830;-3.870;2023-07-13T07:54:22;18.70;99.90
15916;DHT22;8057;47.830;-3.870;2023-07-13T07:59:09;18.80;99.90
15916;DHT22;8057;47.830;-3.870;2023-07-13T08:03:43;18.80;99.90
15916;DHT22;8057;47.830;-3.870;2023-07-13T08:08:14;18.90;99.90
15916;DHT22;8057;47.830;-3.870;2023-07-13T08:12:47;19.00;99.90
15916;DHT22;8057;47.830;-3.870;2023-07-13T08:17:14;18.90;99.90
15916;DHT22;8057;47.830;-3.870;2023-07-13T08:22:03;19.00;99.90
15916;DHT22;8057;47.830;-3.870;2023-07-13T08:26:32;19.00;99.90
15916;DHT22;8057;47.830;-3.870;2023-07-13T08:30:54;19.10;99.90
15916;DHT22;8057;47.830;-3.870;2023-07-13T08:35:22;19.20;99.90
15916;DHT22;8057;47.830;-3.870;2023-07-13T08:39:43;19.30;99.90
15916;DHT22;8057;47.830;-3.870;2023-07-13T08:44:02;19.30;99.90
15916;DHT22;8057;47.830;-3.870;2023-07-13T08:48:32;19.50;99.90
15916;DHT22;8057;47.830;-3.870;2023-07-13T08:52:54;19.50;99.90
15916;DHT22;8057;47.830;-3.870;2023-07-13T08:57:18;19.60;99.90
15916;DHT22;8057;47.830;-3.870;2023-07-13T09:01:59;19.70;99.90
15916;DHT22;8057;47.830;-3.870;2023-07-13T09:06:31;19.70;99.90
15916;DHT22;8057;47.830;-3.870;2023-07-13T09:10:53;19.70;99.90
15916;DHT22;8057;47.830;-3.870;2023-07-13T09:15:30;19.80;99.90
15916;DHT22;8057;47.830;-3.870;2023-07-13T09:19:58;19.90;99.90
15916;DHT22;8057;47.830;-3.870;2023-07-13T09:24:38;19.90;99.90
15916;DHT22;8057;47.830;-3.870;2023-07-13T09:28:57;19.90;99.90
15916;DHT22;8057;47.830;-3.870;2023-07-13T09:33:27;19.90;99.90
15916;DHT22;8057;47.830;-3.870;2023-07-13T09:37:44;20.00;99.90
15916;DHT22;8057;47.830;-3.870;2023-07-13T09:42:01;19.90;99.90
15916;DHT22;8057;47.830;-3.870;2023-07-13T09:46:25;19.90;99.90
15916;DHT22;8057;47.830;-3.870;2023-07-13T09:50:45;19.70;99.90
15916;DHT22;8057;47.830;-3.870;2023-07-13T09:55:03;19.70;99.90
15916;DHT22;8057;47.830;-3.870;2023-07-13T09:59:22;19.90;99.90
15916;DHT22;8057;47.830;-3.870;2023-07-13T10:03:34;19.90;99.90
15916;DHT22;8057;47.830;-3.870;2023-07-13T10:07:53;19.90;99.90
15916;DHT22;8057;47.830;-3.870;2023-07-13T10:12:17;20.00;99.90
15916;DHT22;8057;47.830;-3.870;2023-07-13T10:16:33;20.30;99.90
15916;DHT22;8057;47.830;-3.870;2023-07-13T10:20:57;20.50;99.90
15916;DHT22;8057;47.830;-3.870;2023-07-13T10:25:44;20.70;99.90
15916;DHT22;8057;47.830;-3.870;2023-07-13T10:30:12;20.80;99.90
15916;DHT22;8057;47.830;-3.870;2023-07-13T10:34:29;20.80;99.90
15916;DHT22;8057;47.830;-3.870;2023-07-13T10:38:52;20.70;99.90
15916;DHT22;8057;47.830;-3.870;2023-07-13T10:43:11;20.90;99.90
15916;DHT22;8057;47.830;-3.870;2023-07-13T10:47:37;20.90;99.90
15916;DHT22;8057;47.830;-3.870;2023-07-13T10:52:00;21.30;99.90
15916;DHT22;8057;47.830;-3.870;2023-07-13T10:56:31;21.20;99.90
15916;DHT22;8057;47.830;-3.870;2023-07-13T11:01:03;21.20;99.90
15916;DHT22;8057;47.830;-3.870;2023-07-13T11:05:30;21.30;99.90
15916;DHT22;8057;47.830;-3.870;2023-07-13T11:09:50;21.40;99.90
15916;DHT22;8057;47.830;-3.870;2023-07-13T11:14:00;21.40;99.90
15916;DHT22;8057;47.830;-3.870;2023-07-13T11:18:23;21.60;99.90
15916;DHT22;8057;47.830;-3.870;2023-07-13T11:22:44;21.80;99.90
15916;DHT22;8057;47.830;-3.870;2023-07-13T11:26:57;22.00;99.90
15916;DHT22;8057;47.830;-3.870;2023-07-13T11:31:15;21.90;99.90
15916;DHT22;8057;47.830;-3.870;2023-07-13T11:35:26;21.90;99.90
15916;DHT22;8057;47.830;-3.870;2023-07-13T11:39:40;21.70;99.90
15916;DHT22;8057;47.830;-3.870;2023-07-13T11:43:56;21.80;99.90
15916;DHT22;8057;47.830;-3.870;2023-07-13T11:48:21;21.90;99.90
15916;DHT22;8057;47.830;-3.870;2023-07-13T11:52:35;22.00;99.90
15916;DHT22;8057;47.830;-3.870;2023-07-13T11:56:57;22.10;99.90
15916;DHT22;8057;47.830;-3.870;2023-07-13T12:01:16;22.00;99.90
15916;DHT22;8057;47.830;-3.870;2023-07-13T12:05:27;22.20;99.90
15916;DHT22;8057;47.830;-3.870;2023-07-13T12:09:40;22.40;99.90
15916;DHT22;8057;47.830;-3.870;2023-07-13T12:13:50;22.40;99.90
15916;DHT22;8057;47.830;-3.870;2023-07-13T12:17:59;22.20;99.90
15916;DHT22;8057;47.830;-3.870;2023-07-13T12:22:11;22.20;99.90
15916;DHT22;8057;47.830;-3.870;2023-07-13T12:26:22;22.40;99.90
15916;DHT22;8057;47.830;-3.870;2023-07-13T12:30:32;22.50;99.90
15916;DHT22;8057;47.830;-3.870;2023-07-13T12:34:52;22.50;99.90
15916;DHT22;8057;47.830;-3.870;2023-07-13T12:39:10;22.40;99.90
15916;DHT22;8057;47.830;-3.870;2023-07-13T12:43:23;22.10;99.90
15916;DHT22;8057;47.830;-3.870;2023-07-13T12:47:40;22.20;99.90
15916;DHT22;8057;47.830;-3.870;2023-07-13T12:51:50;22.10;99.90
15916;DHT22;8057;47.830;-3.870;2023-07-13T12:56:04;22.10;99.90
15916;DHT22;8057;47.830;-3.870;2023-07-13T13:00:25;22.00;99.90
15916;DHT22;8057;47.830;-3.870;2023-07-13T13:04:39;22.20;99.90
15916;DHT22;8057;47.830;-3.870;2023-07-13T13:08:54;22.50;99.90
15916;DHT22;8057;47.830;-3.870;2023-07-13T13:13:04;22.50;99.90
15916;DHT22;8057;47.830;-3.870;2023-07-13T13:17:19;22.60;99.90
15916;DHT22;8057;47.830;-3.870;2023-07-13T13:21:36;22.60;99.90
15916;DHT22;8057;47.830;-3.870;2023-07-13T13:25:49;22.70;99.90
15916;DHT22;8057;47.830;-3.870;2023-07-13T13:30:01;22.50;99.90
15916;DHT22;8057;47.830;-3.870;2023-07-13T13:34:13;22.40;99.90
15916;DHT22;8057;47.830;-3.870;2023-07-13T13:38:26;22.60;99.90
15916;DHT22;8057;47.830;-3.870;2023-07-13T13:42:35;22.50;99.90
15916;DHT22;8057;47.830;-3.870;2023-07-13T13:46:46;22.60;99.90
15916;DHT22;8057;47.830;-3.870;2023-07-13T13:50:59;22.40;99.90
15916;DHT22;8057;47.830;-3.870;2023-07-13T13:55:13;22.40;99.90
15916;DHT22;8057;47.830;-3.870;2023-07-13T13:59:22;22.40;99.90
15916;DHT22;8057;47.830;-3.870;2023-07-13T14:03:33;22.60;99.90
15916;DHT22;8057;47.830;-3.870;2023-07-13T14:07:45;22.60;99.90
15916;DHT22;8057;47.830;-3.870;2023-07-13T14:11:54;22.80;99.90
15916;DHT22;8057;47.830;-3.870;2023-07-13T14:16:08;22.90;99.90
15916;DHT22;8057;47.830;-3.870;2023-07-13T14:20:20;23.20;99.90
15916;DHT22;8057;47.830;-3.870;2023-07-13T14:24:31;23.00;99.90
15916;DHT22;8057;47.830;-3.870;2023-07-13T14:28:43;22.30;99.90
15916;DHT22;8057;47.830;-3.870;2023-07-13T14:32:53;22.10;99.90
15916;DHT22;8057;47.830;-3.870;2023-07-13T14:37:02;22.00;99.90
15916;DHT22;8057;47.830;-3.870;2023-07-13T14:41:13;22.30;99.90
15916;DHT22;8057;47.830;-3.870;2023-07-13T14:45:23;22.40;99.90
15916;DHT22;8057;47.830;-3.870;2023-07-13T14:49:34;22.30;99.90
15916;DHT22;8057;47.830;-3.870;2023-07-13T14:53:44;22.70;99.90
15916;DHT22;8057;47.830;-3.870;2023-07-13T14:57:55;23.10;99.90
15916;DHT22;8057;47.830;-3.870;2023-07-13T15:02:14;23.30;99.90
15916;DHT22;8057;47.830;-3.870;2023-07-13T15:06:23;23.00;99.90
15916;DHT22;8057;47.830;-3.870;2023-07-13T15:10:33;22.80;99.90
15916;DHT22;8057;47.830;-3.870;2023-07-13T15:14:45;22.80;99.90
15916;DHT22;8057;47.830;-3.870;2023-07-13T15:18:54;23.00;99.90
15916;DHT22;8057;47.830;-3.870;2023-07-13T15:23:03;23.40;99.90
15916;DHT22;8057;47.830;-3.870;2023-07-13T15:27:13;23.40;99.90
15916;DHT22;8057;47.830;-3.870;2023-07-13T15:31:25;23.30;99.90
15916;DHT22;8057;47.830;-3.870;2023-07-13T15:35:35;22.90;99.90
15916;DHT22;8057;47.830;-3.870;2023-07-13T15:39:45;22.90;99.90
15916;DHT22;8057;47.830;-3.870;2023-07-13T15:43:57;22.80;99.90
15916;DHT22;8057;47.830;-3.870;2023-07-13T15:48:13;22.90;99.90
15916;DHT22;8057;47.830;-3.870;2023-07-13T15:52:24;23.20;99.90
15916;DHT22;8057;47.830;-3.870;2023-07-13T15:56:35;23.30;99.90
15916;DHT22;8057;47.830;-3.870;2023-07-13T16:00:47;23.10;99.90
15916;DHT22;8057;47.830;-3.870;2023-07-13T16:05:00;22.90;99.90
15916;DHT22;8057;47.830;-3.870;2023-07-13T16:09:12;22.90;99.90
15916;DHT22;8057;47.830;-3.870;2023-07-13T16:13:25;22.70;99.90
15916;DHT22;8057;47.830;-3.870;2023-07-13T16:17:35;22.50;99.90
15916;DHT22;8057;47.830;-3.870;2023-07-13T16:21:47;22.50;99.90
15916;DHT22;8057;47.830;-3.870;2023-07-13T16:25:58;22.30;99.90
15916;DHT22;8057;47.830;-3.870;2023-07-13T16:30:16;22.10;99.90
15916;DHT22;8057;47.830;-3.870;2023-07-13T16:34:29;21.90;99.90
15916;DHT22;8057;47.830;-3.870;2023-07-13T16:38:40;21.70;99.90
15916;DHT22;8057;47.830;-3.870;2023-07-13T16:42:50;21.90;99.90
15916;DHT22;8057;47.830;-3.870;2023-07-13T16:47:00;21.80;99.90
15916;DHT22;8057;47.830;-3.870;2023-07-13T16:51:09;21.70;99.90
15916;DHT22;8057;47.830;-3.870;2023-07-13T16:55:21;21.80;99.90
15916;DHT22;8057;47.830;-3.870;2023-07-13T16:59:34;21.70;99.90
15916;DHT22;8057;47.830;-3.870;2023-07-13T17:03:44;21.70;99.90
15916;DHT22;8057;47.830;-3.870;2023-07-13T17:07:53;21.60;99.90
15916;DHT22;8057;47.830;-3.870;2023-07-13T17:12:04;21.30;99.90
15916;DHT22;8057;47.830;-3.870;2023-07-13T17:16:17;21.30;99.90
15916;DHT22;8057;47.830;-3.870;2023-07-13T17:20:30;21.40;99.90
15916;DHT22;8057;47.830;-3.870;2023-07-13T17:24:40;21.10;99.90
15916;DHT22;8057;47.830;-3.870;2023-07-13T17:28:53;20.90;99.90
15916;DHT22;8057;47.830;-3.870;2023-07-13T17:33:04;20.80;99.90
15916;DHT22;8057;47.830;-3.870;2023-07-13T17:37:17;20.70;99.90
15916;DHT22;8057;47.830;-3.870;2023-07-13T17:41:27;20.70;99.90
15916;DHT22;8057;47.830;-3.870;2023-07-13T17:45:37;20.70;99.90
15916;DHT22;8057;47.830;-3.870;2023-07-13T17:49:48;20.60;99.90
15916;DHT22;8057;47.830;-3.870;2023-07-13T17:53:57;20.80;99.90
15916;DHT22;8057;47.830;-3.870;2023-07-13T17:58:06;20.80;99.90
15916;DHT22;8057;47.830;-3.870;2023-07-13T18:02:20;20.90;99.90
15916;DHT22;8057;47.830;-3.870;2023-07-13T18:06:33;20.90;99.90
15916;DHT22;8057;47.830;-3.870;2023-07-13T18:10:44;20.80;99.90
15916;DHT22;8057;47.830;-3.870;2023-07-13T18:14:53;20.60;99.90
15916;DHT22;8057;47.830;-3.870;2023-07-13T18:19:04;20.40;99.90
15916;DHT22;8057;47.830;-3.870;2023-07-13T18:23:16;20.20;99.90
15916;DHT22;8057;47.830;-3.870;2023-07-13T18:27:25;20.10;99.90
15916;DHT22;8057;47.830;-3.870;2023-07-13T18:31:35;20.10;99.90
15916;DHT22;8057;47.830;-3.870;2023-07-13T18:35:47;20.00;99.90
15916;DHT22;8057;47.830;-3.870;2023-07-13T18:39:56;19.90;99.90
15916;DHT22;8057;47.830;-3.870;2023-07-13T18:44:07;19.80;99.90
15916;DHT22;8057;47.830;-3.870;2023-07-13T18:48:41;19.80;99.90
15916;DHT22;8057;47.830;-3.870;2023-07-13T18:52:53;19.70;99.90
15916;DHT22;8057;47.830;-3.870;2023-07-13T18:57:02;19.60;99.90
15916;DHT22;8057;47.830;-3.870;2023-07-13T19:01:19;19.60;99.90
15916;DHT22;8057;47.830;-3.870;2023-07-13T19:05:31;19.70;99.90
15916;DHT22;8057;47.830;-3.870;2023-07-13T19:10:01;19.70;99.90
15916;DHT22;8057;47.830;-3.870;2023-07-13T19:14:11;19.70;99.90
15916;DHT22;8057;47.830;-3.870;2023-07-13T19:18:24;19.70;99.90
15916;DHT22;8057;47.830;-3.870;2023-07-13T19:22:33;19.70;99.90
15916;DHT22;8057;47.830;-3.870;2023-07-13T19:26:46;19.60;99.90
15916;DHT22;8057;47.830;-3.870;2023-07-13T19:30:58;19.60;99.90
15916;DHT22;8057;47.830;-3.870;2023-07-13T19:35:08;19.50;99.90
15916;DHT22;8057;47.830;-3.870;2023-07-13T19:39:25;19.40;99.90
15916;DHT22;8057;47.830;-3.870;2023-07-13T19:43:36;19.30;99.90
15916;DHT22;8057;47.830;-3.870;2023-07-13T19:47:47;19.30;99.90
15916;DHT22;8057;47.830;-3.870;2023-07-13T19:51:57;19.20;99.90
15916;DHT22;8057;47.830;-3.870;2023-07-13T19:56:08;19.10;99.90
15916;DHT22;8057;47.830;-3.870;2023-07-13T20:00:22;19.00;99.90
15916;DHT22;8057;47.830;-3.870;2023-07-13T20:04:32;18.90;99.90
15916;DHT22;8057;47.830;-3.870;2023-07-13T20:08:41;18.90;99.90
15916;DHT22;8057;47.830;-3.870;2023-07-13T20:12:52;18.80;99.90
15916;DHT22;8057;47.830;-3.870;2023-07-13T20:17:19;18.70;99.90
15916;DHT22;8057;47.830;-3.870;2023-07-13T20:21:29;18.70;99.90
15916;DHT22;8057;47.830;-3.870;2023-07-13T20:25:38;18.60;99.90
15916;DHT22;8057;47.830;-3.870;2023-07-13T20:29:48;18.60;99.90
15916;DHT22;8057;47.830;-3.870;2023-07-13T20:33:58;18.60;99.90
15916;DHT22;8057;47.830;-3.870;2023-07-13T20:38:11;18.60;99.90
15916;DHT22;8057;47.830;-3.870;2023-07-13T20:42:23;18.50;99.90
15916;DHT22;8057;47.830;-3.870;2023-07-13T20:46:33;18.50;99.90
15916;DHT22;8057;47.830;-3.870;2023-07-13T20:50:46;18.50;99.90
15916;DHT22;8057;47.830;-3.870;2023-07-13T20:54:56;18.50;99.90
15916;DHT22;8057;47.830;-3.870;2023-07-13T20:59:05;18.50;99.90
15916;DHT22;8057;47.830;-3.870;2023-07-13T21:03:18;18.50;99.90
15916;DHT22;8057;47.830;-3.870;2023-07-13T21:07:30;18.50;99.90
15916;DHT22;8057;47.830;-3.870;2023-07-13T21:11:39;18.50;99.90
15916;DHT22;8057;47.830;-3.870;2023-07-13T21:15:49;18.40;99.90
15916;DHT22;8057;47.830;-3.870;2023-07-13T21:19:58;18.40;99.90
15916;DHT22;8057;47.830;-3.870;2023-07-13T21:24:10;18.40;99.90
15916;DHT22;8057;47.830;-3.870;2023-07-13T21:28:21;18.40;99.90
15916;DHT22;8057;47.830;-3.870;2023-07-13T21:32:31;18.40;99.90
15916;DHT22;8057;47.830;-3.870;2023-07-13T21:36:40;18.40;99.90
15916;DHT22;8057;47.830;-3.870;2023-07-13T21:40:53;18.30;99.90
15916;DHT22;8057;47.830;-3.870;2023-07-13T21:45:17;18.30;99.90
15916;DHT22;8057;47.830;-3.870;2023-07-13T21:49:27;18.30;99.90
15916;DHT22;8057;47.830;-3.870;2023-07-13T21:53:36;18.40;99.90
15916;DHT22;8057;47.830;-3.870;2023-07-13T21:57:49;18.30;99.90
15916;DHT22;8057;47.830;-3.870;2023-07-13T22:01:59;18.30;99.90
15916;DHT22;8057;47.830;-3.870;2023-07-13T22:06:10;18.30;99.90
15916;DHT22;8057;47.830;-3.870;2023-07-13T22:10:26;18.30;99.90
15916;DHT22;8057;47.830;-3.870;2023-07-13T22:14:37;18.30;99.90
15916;DHT22;8057;47.830;-3.870;2023-07-13T22:18:49;18.30;99.90
15916;DHT22;8057;47.830;-3.870;2023-07-13T22:22:58;18.30;99.90
15916;DHT22;8057;47.830;-3.870;2023-07-13T22:27:09;18.40;99.90
15916;DHT22;8057;47.830;-3.870;2023-07-13T22:31:21;18.40;99.90
15916;DHT22;8057;47.830;-3.870;2023-07-13T22:35:31;18.40;99.90
15916;DHT22;8057;47.830;-3.870;2023-07-13T22:39:40;18.40;99.90
15916;DHT22;8057;47.830;-3.870;2023-07-13T22:43:49;18.40;99.90
15916;DHT22;8057;47.830;-3.870;2023-07-13T22:48:00;18.40;99.90
15916;DHT22;8057;47.830;-3.870;2023-07-13T22:52:11;18.40;99.90
15916;DHT22;8057;47.830;-3.870;2023-07-13T22:56:25;18.30;99.90
15916;DHT22;8057;47.830;-3.870;2023-07-13T23:00:35;18.40;99.90
15916;DHT22;8057;47.830;-3.870;2023-07-13T23:04:46;18.40;99.90
15916;DHT22;8057;47.830;-3.870;2023-07-13T23:08:57;18.40;99.90
15916;DHT22;8057;47.830;-3.870;2023-07-13T23:13:07;18.30;99.90
15916;DHT22;8057;47.830;-3.870;2023-07-13T23:17:15;18.30;99.90
15916;DHT22;8057;47.830;-3.870;2023-07-13T23:21:26;18.30;99.90
15916;DHT22;8057;47.830;-3.870;2023-07-13T23:25:35;18.20;99.90
15916;DHT22;8057;47.830;-3.870;2023-07-13T23:29:45;18.20;99.90
15916;DHT22;8057;47.830;-3.870;2023-07-13T23:33:56;18.20;99.90
15916;DHT22;8057;47.830;-3.870;2023-07-13T23:38:10;18.20;99.90
15916;DHT22;8057;47.830;-3.870;2023-07-13T23:42:20;18.20;99.90
15916;DHT22;8057;47.830;-3.870;2023-07-13T23:46:35;18.20;99.90
15916;DHT22;8057;47.830;-3.870;2023-07-13T23:50:46;18.20;99.90
15916;DHT22;8057;47.830;-3.870;2023-07-13T23:54:59;18.20;99.90
15916;DHT22;8057;47.830;-3.870;2023-07-13T23:59:08;18.20;99.90
